sensor_id;sensor_type;location;lat;lon;timestamp;P1;durP1;ratioP1;P2;durP2;ratioP2
13051;SDS011;6592;47.484;9.726;2023-06-24T00:01:00;4.97;;;2.88;;
13051;SDS011;6592;47.484;9.726;2023-06-24T00:03:29;5.45;;;3.03;;
13051;SDS011;6592;47.484;9.726;2023-06-24T00:05:58;5.03;;;3.17;;
13051;SDS011;6592;47.484;9.726;2023-06-24T00:08:29;5.20;;;2.90;;
13051;SDS011;6592;47.484;9.726;2023-06-24T00:11:01;5.82;;;3.00;;
13051;SDS011;6592;47.484;9.726;2023-06-24T00:13:29;9.05;;;3.15;;
13051;SDS011;6592;47.484;9.726;2023-06-24T00:16:00;5.88;;;2.95;;
13051;SDS011;6592;47.484;9.726;2023-06-24T00:18:29;5.80;;;3.17;;
13051;SDS011;6592;47.484;9.726;2023-06-24T00:20:58;5.40;;;2.85;;
13051;SDS011;6592;47.484;9.726;2023-06-24T00:23:28;5.88;;;3.30;;
13051;SDS011;6592;47.484;9.726;2023-06-24T00:26:00;4.68;;;2.80;;
13051;SDS011;6592;47.484;9.726;2023-06-24T00:28:30;6.40;;;3.10;;
13051;SDS011;6592;47.484;9.726;2023-06-24T00:30:58;5.30;;;3.10;;
13051;SDS011;6592;47.484;9.726;2023-06-24T00:33:30;7.20;;;2.85;;
13051;SDS011;6592;47.484;9.726;2023-06-24T00:36:03;5.57;;;3.00;;
13051;SDS011;6592;47.484;9.726;2023-06-24T00:38:35;6.72;;;2.97;;
13051;SDS011;6592;47.484;9.726;2023-06-24T00:41:04;5.57;;;3.38;;
13051;SDS011;6592;47.484;9.726;2023-06-24T00:43:34;5.32;;;3.13;;
13051;SDS011;6592;47.484;9.726;2023-06-24T00:46:05;5.63;;;2.80;;
13051;SDS011;6592;47.484;9.726;2023-06-24T00:48:34;6.35;;;3.65;;
13051;SDS011;6592;47.484;9.726;2023-06-24T00:51:04;6.50;;;3.20;;
13051;SDS011;6592;47.484;9.726;2023-06-24T00:53:33;4.75;;;2.90;;
13051;SDS011;6592;47.484;9.726;2023-06-24T00:56:01;6.00;;;3.08;;
13051;SDS011;6592;47.484;9.726;2023-06-24T00:58:31;4.38;;;2.85;;
13051;SDS011;6592;47.484;9.726;2023-06-24T01:01:03;4.72;;;2.80;;
13051;SDS011;6592;47.484;9.726;2023-06-24T01:03:34;6.50;;;3.38;;
13051;SDS011;6592;47.484;9.726;2023-06-24T01:06:05;6.13;;;2.95;;
13051;SDS011;6592;47.484;9.726;2023-06-24T01:08:34;6.55;;;2.85;;
13051;SDS011;6592;47.484;9.726;2023-06-24T01:11:02;6.70;;;3.30;;
13051;SDS011;6592;47.484;9.726;2023-06-24T01:13:32;7.03;;;3.20;;
13051;SDS011;6592;47.484;9.726;2023-06-24T01:16:04;5.28;;;3.03;;
13051;SDS011;6592;47.484;9.726;2023-06-24T01:18:38;6.95;;;3.40;;
13051;SDS011;6592;47.484;9.726;2023-06-24T01:21:14;5.57;;;3.15;;
13051;SDS011;6592;47.484;9.726;2023-06-24T01:24:07;5.57;;;3.28;;
13051;SDS011;6592;47.484;9.726;2023-06-24T01:26:58;6.30;;;3.20;;
13051;SDS011;6592;47.484;9.726;2023-06-24T01:29:48;5.72;;;3.50;;
13051;SDS011;6592;47.484;9.726;2023-06-24T01:32:26;5.93;;;3.40;;
13051;SDS011;6592;47.484;9.726;2023-06-24T01:35:00;6.75;;;3.50;;
13051;SDS011;6592;47.484;9.726;2023-06-24T01:37:37;5.32;;;3.08;;
13051;SDS011;6592;47.484;9.726;2023-06-24T01:40:10;7.68;;;3.70;;
13051;SDS011;6592;47.484;9.726;2023-06-24T01:42:44;5.70;;;3.50;;
13051;SDS011;6592;47.484;9.726;2023-06-24T01:45:15;4.78;;;2.95;;
13051;SDS011;6592;47.484;9.726;2023-06-24T01:47:48;5.28;;;3.20;;
13051;SDS011;6592;47.484;9.726;2023-06-24T01:50:20;6.75;;;3.50;;
13051;SDS011;6592;47.484;9.726;2023-06-24T01:52:52;7.88;;;3.25;;
13051;SDS011;6592;47.484;9.726;2023-06-24T01:55:22;6.22;;;3.55;;
13051;SDS011;6592;47.484;9.726;2023-06-24T01:57:52;5.28;;;3.15;;
13051;SDS011;6592;47.484;9.726;2023-06-24T02:00:24;5.97;;;3.40;;
13051;SDS011;6592;47.484;9.726;2023-06-24T02:02:55;5.38;;;3.17;;
13051;SDS011;6592;47.484;9.726;2023-06-24T02:07:54;5.20;;;3.05;;
13051;SDS011;6592;47.484;9.726;2023-06-24T02:10:25;7.30;;;3.30;;
13051;SDS011;6592;47.484;9.726;2023-06-24T02:13:00;6.28;;;3.30;;
13051;SDS011;6592;47.484;9.726;2023-06-24T02:15:30;6.53;;;3.55;;
13051;SDS011;6592;47.484;9.726;2023-06-24T02:18:04;5.70;;;2.97;;
13051;SDS011;6592;47.484;9.726;2023-06-24T02:20:37;6.45;;;3.38;;
13051;SDS011;6592;47.484;9.726;2023-06-24T02:23:08;5.53;;;3.33;;
13051;SDS011;6592;47.484;9.726;2023-06-24T02:25:39;5.43;;;3.03;;
13051;SDS011;6592;47.484;9.726;2023-06-24T02:28:09;7.28;;;3.47;;
13051;SDS011;6592;47.484;9.726;2023-06-24T02:30:39;6.72;;;3.70;;
13051;SDS011;6592;47.484;9.726;2023-06-24T02:33:11;7.07;;;3.50;;
13051;SDS011;6592;47.484;9.726;2023-06-24T02:35:40;8.10;;;3.03;;
13051;SDS011;6592;47.484;9.726;2023-06-24T02:38:09;6.05;;;3.30;;
13051;SDS011;6592;47.484;9.726;2023-06-24T02:40:38;5.70;;;3.20;;
13051;SDS011;6592;47.484;9.726;2023-06-24T02:43:08;6.03;;;3.08;;
13051;SDS011;6592;47.484;9.726;2023-06-24T02:45:37;7.65;;;3.83;;
13051;SDS011;6592;47.484;9.726;2023-06-24T02:48:08;6.45;;;3.60;;
13051;SDS011;6592;47.484;9.726;2023-06-24T02:50:39;5.90;;;3.58;;
13051;SDS011;6592;47.484;9.726;2023-06-24T02:53:10;6.07;;;3.17;;
13051;SDS011;6592;47.484;9.726;2023-06-24T02:55:41;7.47;;;3.20;;
13051;SDS011;6592;47.484;9.726;2023-06-24T02:58:13;5.53;;;2.97;;
13051;SDS011;6592;47.484;9.726;2023-06-24T03:00:42;5.35;;;3.25;;
13051;SDS011;6592;47.484;9.726;2023-06-24T03:03:16;5.90;;;3.40;;
13051;SDS011;6592;47.484;9.726;2023-06-24T03:05:47;5.55;;;3.08;;
13051;SDS011;6592;47.484;9.726;2023-06-24T03:08:17;6.75;;;3.72;;
13051;SDS011;6592;47.484;9.726;2023-06-24T03:10:46;6.10;;;3.17;;
13051;SDS011;6592;47.484;9.726;2023-06-24T03:13:18;4.68;;;2.78;;
13051;SDS011;6592;47.484;9.726;2023-06-24T03:15:47;5.28;;;3.20;;
13051;SDS011;6592;47.484;9.726;2023-06-24T03:18:16;6.65;;;3.50;;
13051;SDS011;6592;47.484;9.726;2023-06-24T03:20:48;5.63;;;3.55;;
13051;SDS011;6592;47.484;9.726;2023-06-24T03:23:20;4.85;;;3.10;;
13051;SDS011;6592;47.484;9.726;2023-06-24T03:25:48;7.25;;;3.60;;
13051;SDS011;6592;47.484;9.726;2023-06-24T03:28:18;4.88;;;3.30;;
13051;SDS011;6592;47.484;9.726;2023-06-24T03:30:47;5.70;;;3.42;;
13051;SDS011;6592;47.484;9.726;2023-06-24T03:33:16;7.13;;;3.17;;
13051;SDS011;6592;47.484;9.726;2023-06-24T03:35:45;6.25;;;3.28;;
13051;SDS011;6592;47.484;9.726;2023-06-24T03:38:15;6.40;;;3.60;;
13051;SDS011;6592;47.484;9.726;2023-06-24T03:40:44;6.60;;;3.67;;
13051;SDS011;6592;47.484;9.726;2023-06-24T03:43:13;6.00;;;3.60;;
13051;SDS011;6592;47.484;9.726;2023-06-24T03:45:43;6.40;;;3.20;;
13051;SDS011;6592;47.484;9.726;2023-06-24T03:48:12;5.78;;;3.40;;
13051;SDS011;6592;47.484;9.726;2023-06-24T03:50:41;5.97;;;3.20;;
13051;SDS011;6592;47.484;9.726;2023-06-24T03:53:11;6.13;;;3.30;;
13051;SDS011;6592;47.484;9.726;2023-06-24T03:55:44;6.45;;;3.20;;
13051;SDS011;6592;47.484;9.726;2023-06-24T03:58:13;7.75;;;3.55;;
13051;SDS011;6592;47.484;9.726;2023-06-24T04:00:43;5.72;;;3.33;;
13051;SDS011;6592;47.484;9.726;2023-06-24T04:03:11;6.07;;;3.47;;
13051;SDS011;6592;47.484;9.726;2023-06-24T04:05:42;6.30;;;3.47;;
13051;SDS011;6592;47.484;9.726;2023-06-24T04:08:11;6.53;;;3.25;;
13051;SDS011;6592;47.484;9.726;2023-06-24T04:10:40;6.47;;;3.40;;
13051;SDS011;6592;47.484;9.726;2023-06-24T04:13:11;6.72;;;3.47;;
13051;SDS011;6592;47.484;9.726;2023-06-24T04:15:40;6.90;;;3.25;;
13051;SDS011;6592;47.484;9.726;2023-06-24T04:18:10;5.88;;;3.30;;
13051;SDS011;6592;47.484;9.726;2023-06-24T04:20:38;7.28;;;3.28;;
13051;SDS011;6592;47.484;9.726;2023-06-24T04:23:07;5.50;;;3.47;;
13051;SDS011;6592;47.484;9.726;2023-06-24T04:25:37;5.80;;;3.38;;
13051;SDS011;6592;47.484;9.726;2023-06-24T04:28:06;7.72;;;3.10;;
13051;SDS011;6592;47.484;9.726;2023-06-24T04:30:37;6.60;;;3.28;;
13051;SDS011;6592;47.484;9.726;2023-06-24T04:33:06;5.88;;;3.40;;
13051;SDS011;6592;47.484;9.726;2023-06-24T04:35:35;7.20;;;3.10;;
13051;SDS011;6592;47.484;9.726;2023-06-24T04:38:04;5.32;;;3.28;;
13051;SDS011;6592;47.484;9.726;2023-06-24T04:40:33;6.70;;;3.20;;
13051;SDS011;6592;47.484;9.726;2023-06-24T04:43:04;6.05;;;3.30;;
13051;SDS011;6592;47.484;9.726;2023-06-24T04:45:33;5.95;;;3.50;;
13051;SDS011;6592;47.484;9.726;2023-06-24T04:48:05;5.55;;;3.13;;
13051;SDS011;6592;47.484;9.726;2023-06-24T04:50:34;6.28;;;3.50;;
13051;SDS011;6592;47.484;9.726;2023-06-24T04:53:05;8.65;;;3.45;;
13051;SDS011;6592;47.484;9.726;2023-06-24T04:55:34;5.55;;;3.13;;
13051;SDS011;6592;47.484;9.726;2023-06-24T04:58:04;6.80;;;3.00;;
13051;SDS011;6592;47.484;9.726;2023-06-24T05:00:33;6.20;;;3.35;;
13051;SDS011;6592;47.484;9.726;2023-06-24T05:03:02;6.63;;;3.78;;
13051;SDS011;6592;47.484;9.726;2023-06-24T05:05:34;5.78;;;3.25;;
13051;SDS011;6592;47.484;9.726;2023-06-24T05:08:03;6.07;;;3.60;;
13051;SDS011;6592;47.484;9.726;2023-06-24T05:10:33;6.28;;;3.30;;
13051;SDS011;6592;47.484;9.726;2023-06-24T05:13:02;4.88;;;3.00;;
13051;SDS011;6592;47.484;9.726;2023-06-24T05:15:31;6.60;;;3.70;;
13051;SDS011;6592;47.484;9.726;2023-06-24T05:18:02;4.78;;;2.97;;
13051;SDS011;6592;47.484;9.726;2023-06-24T05:20:34;6.38;;;3.40;;
13051;SDS011;6592;47.484;9.726;2023-06-24T05:23:03;5.68;;;3.30;;
13051;SDS011;6592;47.484;9.726;2023-06-24T05:25:32;5.32;;;3.35;;
13051;SDS011;6592;47.484;9.726;2023-06-24T05:28:02;5.32;;;3.20;;
13051;SDS011;6592;47.484;9.726;2023-06-24T05:30:31;6.20;;;3.60;;
13051;SDS011;6592;47.484;9.726;2023-06-24T05:33:00;7.07;;;3.50;;
13051;SDS011;6592;47.484;9.726;2023-06-24T05:35:30;5.22;;;3.03;;
13051;SDS011;6592;47.484;9.726;2023-06-24T05:38:00;7.50;;;3.38;;
13051;SDS011;6592;47.484;9.726;2023-06-24T05:40:29;6.72;;;3.08;;
13051;SDS011;6592;47.484;9.726;2023-06-24T05:42:58;6.25;;;3.00;;
13051;SDS011;6592;47.484;9.726;2023-06-24T05:45:27;5.55;;;2.95;;
13051;SDS011;6592;47.484;9.726;2023-06-24T05:47:56;5.28;;;3.38;;
13051;SDS011;6592;47.484;9.726;2023-06-24T05:50:25;6.72;;;3.10;;
13051;SDS011;6592;47.484;9.726;2023-06-24T05:52:57;5.35;;;3.15;;
13051;SDS011;6592;47.484;9.726;2023-06-24T05:55:26;5.18;;;3.20;;
13051;SDS011;6592;47.484;9.726;2023-06-24T05:57:55;5.75;;;3.00;;
13051;SDS011;6592;47.484;9.726;2023-06-24T06:00:24;6.85;;;3.08;;
13051;SDS011;6592;47.484;9.726;2023-06-24T06:02:53;9.93;;;3.47;;
13051;SDS011;6592;47.484;9.726;2023-06-24T06:05:22;4.55;;;2.80;;
13051;SDS011;6592;47.484;9.726;2023-06-24T06:07:51;5.80;;;3.25;;
13051;SDS011;6592;47.484;9.726;2023-06-24T06:10:22;6.00;;;3.30;;
13051;SDS011;6592;47.484;9.726;2023-06-24T06:12:51;5.60;;;3.28;;
13051;SDS011;6592;47.484;9.726;2023-06-24T06:15:20;6.53;;;3.15;;
13051;SDS011;6592;47.484;9.726;2023-06-24T06:17:49;5.35;;;3.30;;
13051;SDS011;6592;47.484;9.726;2023-06-24T06:20:19;6.40;;;3.38;;
13051;SDS011;6592;47.484;9.726;2023-06-24T06:22:49;6.20;;;3.00;;
13051;SDS011;6592;47.484;9.726;2023-06-24T06:25:18;6.45;;;3.40;;
13051;SDS011;6592;47.484;9.726;2023-06-24T06:27:49;6.03;;;3.13;;
13051;SDS011;6592;47.484;9.726;2023-06-24T06:30:18;5.60;;;3.28;;
13051;SDS011;6592;47.484;9.726;2023-06-24T06:32:47;7.05;;;3.17;;
13051;SDS011;6592;47.484;9.726;2023-06-24T06:35:16;5.93;;;3.40;;
13051;SDS011;6592;47.484;9.726;2023-06-24T06:37:47;6.90;;;3.40;;
13051;SDS011;6592;47.484;9.726;2023-06-24T06:40:22;5.35;;;3.30;;
13051;SDS011;6592;47.484;9.726;2023-06-24T06:45:24;6.43;;;3.20;;
13051;SDS011;6592;47.484;9.726;2023-06-24T06:47:52;6.72;;;3.75;;
13051;SDS011;6592;47.484;9.726;2023-06-24T06:50:21;5.75;;;3.20;;
13051;SDS011;6592;47.484;9.726;2023-06-24T06:52:50;6.30;;;3.65;;
13051;SDS011;6592;47.484;9.726;2023-06-24T06:55:19;5.97;;;3.55;;
13051;SDS011;6592;47.484;9.726;2023-06-24T06:57:50;5.80;;;3.45;;
13051;SDS011;6592;47.484;9.726;2023-06-24T07:00:21;5.85;;;3.45;;
13051;SDS011;6592;47.484;9.726;2023-06-24T07:02:52;5.68;;;3.25;;
13051;SDS011;6592;47.484;9.726;2023-06-24T07:05:20;6.72;;;3.45;;
13051;SDS011;6592;47.484;9.726;2023-06-24T07:07:50;5.72;;;3.20;;
13051;SDS011;6592;47.484;9.726;2023-06-24T07:10:20;5.20;;;3.20;;
13051;SDS011;6592;47.484;9.726;2023-06-24T07:12:49;5.35;;;3.40;;
13051;SDS011;6592;47.484;9.726;2023-06-24T07:15:26;6.72;;;3.22;;
13051;SDS011;6592;47.484;9.726;2023-06-24T07:17:55;5.40;;;3.10;;
13051;SDS011;6592;47.484;9.726;2023-06-24T07:20:24;4.88;;;2.90;;
13051;SDS011;6592;47.484;9.726;2023-06-24T07:22:54;5.50;;;3.30;;
13051;SDS011;6592;47.484;9.726;2023-06-24T07:25:23;5.25;;;3.03;;
13051;SDS011;6592;47.484;9.726;2023-06-24T07:27:52;5.60;;;3.28;;
13051;SDS011;6592;47.484;9.726;2023-06-24T07:30:21;6.47;;;3.40;;
13051;SDS011;6592;47.484;9.726;2023-06-24T07:32:55;5.07;;;3.28;;
13051;SDS011;6592;47.484;9.726;2023-06-24T07:35:24;5.85;;;3.22;;
13051;SDS011;6592;47.484;9.726;2023-06-24T07:37:53;5.57;;;3.13;;
13051;SDS011;6592;47.484;9.726;2023-06-24T07:40:22;5.72;;;2.85;;
13051;SDS011;6592;47.484;9.726;2023-06-24T07:42:51;5.85;;;3.28;;
13051;SDS011;6592;47.484;9.726;2023-06-24T07:45:21;5.30;;;3.00;;
13051;SDS011;6592;47.484;9.726;2023-06-24T07:47:52;5.00;;;3.17;;
13051;SDS011;6592;47.484;9.726;2023-06-24T07:50:24;4.75;;;2.80;;
13051;SDS011;6592;47.484;9.726;2023-06-24T07:52:54;5.50;;;2.73;;
13051;SDS011;6592;47.484;9.726;2023-06-24T07:55:22;4.22;;;2.60;;
13051;SDS011;6592;47.484;9.726;2023-06-24T07:57:51;5.80;;;3.08;;
13051;SDS011;6592;47.484;9.726;2023-06-24T08:00:20;5.18;;;3.25;;
13051;SDS011;6592;47.484;9.726;2023-06-24T08:02:50;5.53;;;3.08;;
13051;SDS011;6592;47.484;9.726;2023-06-24T08:05:20;4.90;;;3.08;;
13051;SDS011;6592;47.484;9.726;2023-06-24T08:07:51;4.80;;;2.92;;
13051;SDS011;6592;47.484;9.726;2023-06-24T08:10:20;4.63;;;3.25;;
13051;SDS011;6592;47.484;9.726;2023-06-24T08:12:50;5.82;;;3.17;;
13051;SDS011;6592;47.484;9.726;2023-06-24T08:15:19;4.63;;;3.15;;
13051;SDS011;6592;47.484;9.726;2023-06-24T08:17:50;6.35;;;3.10;;
13051;SDS011;6592;47.484;9.726;2023-06-24T08:20:20;4.32;;;2.78;;
13051;SDS011;6592;47.484;9.726;2023-06-24T08:22:49;4.85;;;2.88;;
13051;SDS011;6592;47.484;9.726;2023-06-24T08:25:21;5.05;;;2.80;;
13051;SDS011;6592;47.484;9.726;2023-06-24T08:27:50;4.80;;;2.60;;
13051;SDS011;6592;47.484;9.726;2023-06-24T08:30:20;4.47;;;2.67;;
13051;SDS011;6592;47.484;9.726;2023-06-24T08:32:49;5.68;;;2.55;;
13051;SDS011;6592;47.484;9.726;2023-06-24T08:35:18;5.28;;;2.78;;
13051;SDS011;6592;47.484;9.726;2023-06-24T08:37:47;3.90;;;2.65;;
13051;SDS011;6592;47.484;9.726;2023-06-24T08:40:17;4.85;;;2.80;;
13051;SDS011;6592;47.484;9.726;2023-06-24T08:42:47;3.50;;;2.40;;
13051;SDS011;6592;47.484;9.726;2023-06-24T08:45:16;4.95;;;2.97;;
13051;SDS011;6592;47.484;9.726;2023-06-24T08:47:45;3.75;;;2.47;;
13051;SDS011;6592;47.484;9.726;2023-06-24T08:50:16;4.07;;;2.95;;
13051;SDS011;6592;47.484;9.726;2023-06-24T08:52:48;4.38;;;2.97;;
13051;SDS011;6592;47.484;9.726;2023-06-24T08:55:21;4.20;;;2.67;;
13051;SDS011;6592;47.484;9.726;2023-06-24T08:57:53;4.18;;;2.85;;
13051;SDS011;6592;47.484;9.726;2023-06-24T09:00:30;3.75;;;2.47;;
13051;SDS011;6592;47.484;9.726;2023-06-24T09:02:59;4.72;;;2.60;;
13051;SDS011;6592;47.484;9.726;2023-06-24T09:05:30;4.32;;;2.70;;
13051;SDS011;6592;47.484;9.726;2023-06-24T09:08:00;3.13;;;2.05;;
13051;SDS011;6592;47.484;9.726;2023-06-24T09:10:29;4.03;;;2.20;;
13051;SDS011;6592;47.484;9.726;2023-06-24T09:13:01;2.97;;;2.05;;
13051;SDS011;6592;47.484;9.726;2023-06-24T09:15:31;4.10;;;2.10;;
13051;SDS011;6592;47.484;9.726;2023-06-24T09:18:02;4.25;;;2.22;;
13051;SDS011;6592;47.484;9.726;2023-06-24T09:20:33;4.03;;;2.10;;
13051;SDS011;6592;47.484;9.726;2023-06-24T09:23:06;3.10;;;2.05;;
13051;SDS011;6592;47.484;9.726;2023-06-24T09:25:34;3.53;;;1.75;;
13051;SDS011;6592;47.484;9.726;2023-06-24T09:28:06;2.90;;;1.90;;
13051;SDS011;6592;47.484;9.726;2023-06-24T09:30:35;3.60;;;2.05;;
13051;SDS011;6592;47.484;9.726;2023-06-24T09:33:04;3.15;;;1.88;;
13051;SDS011;6592;47.484;9.726;2023-06-24T09:35:36;3.08;;;1.98;;
13051;SDS011;6592;47.484;9.726;2023-06-24T09:38:05;3.20;;;2.25;;
13051;SDS011;6592;47.484;9.726;2023-06-24T09:40:34;3.10;;;1.60;;
13051;SDS011;6592;47.484;9.726;2023-06-24T09:43:08;2.88;;;1.90;;
13051;SDS011;6592;47.484;9.726;2023-06-24T09:45:48;2.97;;;1.70;;
13051;SDS011;6592;47.484;9.726;2023-06-24T09:48:18;3.22;;;1.90;;
13051;SDS011;6592;47.484;9.726;2023-06-24T09:50:48;2.83;;;1.88;;
13051;SDS011;6592;47.484;9.726;2023-06-24T09:55:54;3.97;;;2.00;;
13051;SDS011;6592;47.484;9.726;2023-06-24T09:58:25;4.32;;;2.30;;
13051;SDS011;6592;47.484;9.726;2023-06-24T10:00:59;2.60;;;1.70;;
13051;SDS011;6592;47.484;9.726;2023-06-24T10:03:32;3.35;;;2.00;;
13051;SDS011;6592;47.484;9.726;2023-06-24T10:06:04;2.80;;;1.90;;
13051;SDS011;6592;47.484;9.726;2023-06-24T10:08:43;2.90;;;1.70;;
13051;SDS011;6592;47.484;9.726;2023-06-24T10:11:12;3.75;;;2.20;;
13051;SDS011;6592;47.484;9.726;2023-06-24T10:13:46;2.75;;;1.90;;
13051;SDS011;6592;47.484;9.726;2023-06-24T10:16:15;3.30;;;2.00;;
13051;SDS011;6592;47.484;9.726;2023-06-24T10:18:44;3.75;;;2.10;;
13051;SDS011;6592;47.484;9.726;2023-06-24T10:21:15;3.83;;;2.13;;
13051;SDS011;6592;47.484;9.726;2023-06-24T10:23:51;3.40;;;1.80;;
13051;SDS011;6592;47.484;9.726;2023-06-24T10:26:21;3.22;;;1.98;;
13051;SDS011;6592;47.484;9.726;2023-06-24T10:31:51;3.25;;;1.85;;
13051;SDS011;6592;47.484;9.726;2023-06-24T10:34:40;2.70;;;1.60;;
13051;SDS011;6592;47.484;9.726;2023-06-24T10:37:13;3.13;;;2.00;;
13051;SDS011;6592;47.484;9.726;2023-06-24T10:39:50;3.05;;;1.70;;
13051;SDS011;6592;47.484;9.726;2023-06-24T10:42:36;3.20;;;1.70;;
13051;SDS011;6592;47.484;9.726;2023-06-24T10:45:18;3.33;;;1.90;;
13051;SDS011;6592;47.484;9.726;2023-06-24T10:47:48;3.85;;;1.77;;
13051;SDS011;6592;47.484;9.726;2023-06-24T10:50:22;3.03;;;1.73;;
13051;SDS011;6592;47.484;9.726;2023-06-24T10:52:52;3.47;;;1.70;;
13051;SDS011;6592;47.484;9.726;2023-06-24T10:55:23;3.13;;;1.63;;
13051;SDS011;6592;47.484;9.726;2023-06-24T10:57:53;2.33;;;1.63;;
13051;SDS011;6592;47.484;9.726;2023-06-24T11:00:24;3.45;;;1.70;;
13051;SDS011;6592;47.484;9.726;2023-06-24T11:02:53;3.13;;;1.80;;
13051;SDS011;6592;47.484;9.726;2023-06-24T11:05:22;4.00;;;1.90;;
13051;SDS011;6592;47.484;9.726;2023-06-24T11:07:51;3.15;;;1.70;;
13051;SDS011;6592;47.484;9.726;2023-06-24T11:10:22;2.70;;;1.42;;
13051;SDS011;6592;47.484;9.726;2023-06-24T11:12:53;3.78;;;2.05;;
13051;SDS011;6592;47.484;9.726;2023-06-24T11:17:53;3.08;;;1.67;;
13051;SDS011;6592;47.484;9.726;2023-06-24T11:20:22;2.65;;;1.67;;
13051;SDS011;6592;47.484;9.726;2023-06-24T11:22:51;2.72;;;1.70;;
13051;SDS011;6592;47.484;9.726;2023-06-24T11:27:51;2.60;;;1.70;;
13051;SDS011;6592;47.484;9.726;2023-06-24T11:30:20;3.13;;;1.77;;
13051;SDS011;6592;47.484;9.726;2023-06-24T11:32:51;5.45;;;1.80;;
13051;SDS011;6592;47.484;9.726;2023-06-24T11:35:21;3.15;;;1.63;;
13051;SDS011;6592;47.484;9.726;2023-06-24T11:37:51;3.15;;;1.60;;
13051;SDS011;6592;47.484;9.726;2023-06-24T11:40:19;2.40;;;1.63;;
13051;SDS011;6592;47.484;9.726;2023-06-24T11:42:51;2.47;;;1.40;;
13051;SDS011;6592;47.484;9.726;2023-06-24T11:47:53;3.28;;;1.70;;
13051;SDS011;6592;47.484;9.726;2023-06-24T11:50:31;3.03;;;1.67;;
13051;SDS011;6592;47.484;9.726;2023-06-24T11:53:00;2.80;;;1.70;;
13051;SDS011;6592;47.484;9.726;2023-06-24T11:55:31;2.75;;;1.60;;
13051;SDS011;6592;47.484;9.726;2023-06-24T11:58:01;3.13;;;1.67;;
13051;SDS011;6592;47.484;9.726;2023-06-24T12:00:35;3.15;;;1.67;;
13051;SDS011;6592;47.484;9.726;2023-06-24T12:03:08;2.80;;;1.50;;
13051;SDS011;6592;47.484;9.726;2023-06-24T12:05:39;2.85;;;1.60;;
13051;SDS011;6592;47.484;9.726;2023-06-24T12:08:13;3.03;;;1.90;;
13051;SDS011;6592;47.484;9.726;2023-06-24T12:10:43;3.92;;;1.60;;
13051;SDS011;6592;47.484;9.726;2023-06-24T12:13:12;2.92;;;1.75;;
13051;SDS011;6592;47.484;9.726;2023-06-24T12:15:41;3.80;;;1.90;;
13051;SDS011;6592;47.484;9.726;2023-06-24T12:18:12;3.28;;;1.60;;
13051;SDS011;6592;47.484;9.726;2023-06-24T12:20:42;3.25;;;1.80;;
13051;SDS011;6592;47.484;9.726;2023-06-24T12:23:12;2.90;;;1.70;;
13051;SDS011;6592;47.484;9.726;2023-06-24T12:25:41;4.00;;;1.88;;
13051;SDS011;6592;47.484;9.726;2023-06-24T12:28:10;2.92;;;1.75;;
13051;SDS011;6592;47.484;9.726;2023-06-24T12:30:38;3.17;;;1.67;;
13051;SDS011;6592;47.484;9.726;2023-06-24T12:33:07;4.70;;;1.88;;
13051;SDS011;6592;47.484;9.726;2023-06-24T12:35:37;3.35;;;1.85;;
13051;SDS011;6592;47.484;9.726;2023-06-24T12:38:07;2.92;;;1.60;;
13051;SDS011;6592;47.484;9.726;2023-06-24T12:40:39;3.40;;;1.80;;
13051;SDS011;6592;47.484;9.726;2023-06-24T12:43:07;2.55;;;1.55;;
13051;SDS011;6592;47.484;9.726;2023-06-24T12:45:36;3.65;;;1.83;;
13051;SDS011;6592;47.484;9.726;2023-06-24T12:48:06;3.08;;;1.80;;
13051;SDS011;6592;47.484;9.726;2023-06-24T12:50:40;3.47;;;1.70;;
13051;SDS011;6592;47.484;9.726;2023-06-24T12:53:09;2.72;;;1.63;;
13051;SDS011;6592;47.484;9.726;2023-06-24T12:55:41;3.00;;;1.65;;
13051;SDS011;6592;47.484;9.726;2023-06-24T12:58:12;3.35;;;1.75;;
13051;SDS011;6592;47.484;9.726;2023-06-24T13:00:44;3.40;;;1.92;;
13051;SDS011;6592;47.484;9.726;2023-06-24T13:03:15;2.85;;;1.70;;
13051;SDS011;6592;47.484;9.726;2023-06-24T13:05:50;2.50;;;1.60;;
13051;SDS011;6592;47.484;9.726;2023-06-24T13:08:18;3.10;;;1.60;;
13051;SDS011;6592;47.484;9.726;2023-06-24T13:10:47;3.63;;;1.70;;
13051;SDS011;6592;47.484;9.726;2023-06-24T13:13:16;2.95;;;1.88;;
13051;SDS011;6592;47.484;9.726;2023-06-24T13:15:45;3.28;;;2.10;;
13051;SDS011;6592;47.484;9.726;2023-06-24T13:18:14;3.67;;;2.08;;
13051;SDS011;6592;47.484;9.726;2023-06-24T13:20:48;3.20;;;1.92;;
13051;SDS011;6592;47.484;9.726;2023-06-24T13:23:32;3.55;;;1.83;;
13051;SDS011;6592;47.484;9.726;2023-06-24T13:26:06;2.78;;;1.77;;
13051;SDS011;6592;47.484;9.726;2023-06-24T13:28:35;3.03;;;1.67;;
13051;SDS011;6592;47.484;9.726;2023-06-24T13:31:03;3.05;;;1.80;;
13051;SDS011;6592;47.484;9.726;2023-06-24T13:33:33;2.83;;;1.63;;
13051;SDS011;6592;47.484;9.726;2023-06-24T13:36:04;2.88;;;1.63;;
13051;SDS011;6592;47.484;9.726;2023-06-24T13:38:35;3.80;;;1.70;;
13051;SDS011;6592;47.484;9.726;2023-06-24T13:41:03;3.33;;;1.70;;
13051;SDS011;6592;47.484;9.726;2023-06-24T13:43:32;2.70;;;1.88;;
13051;SDS011;6592;47.484;9.726;2023-06-24T13:46:01;2.70;;;1.80;;
13051;SDS011;6592;47.484;9.726;2023-06-24T13:48:31;3.45;;;1.90;;
13051;SDS011;6592;47.484;9.726;2023-06-24T13:51:00;4.75;;;1.95;;
13051;SDS011;6592;47.484;9.726;2023-06-24T13:53:31;2.83;;;1.60;;
13051;SDS011;6592;47.484;9.726;2023-06-24T13:55:59;2.90;;;1.70;;
13051;SDS011;6592;47.484;9.726;2023-06-24T13:58:28;3.22;;;1.77;;
13051;SDS011;6592;47.484;9.726;2023-06-24T14:00:58;3.17;;;1.77;;
13051;SDS011;6592;47.484;9.726;2023-06-24T14:03:27;4.78;;;2.10;;
13051;SDS011;6592;47.484;9.726;2023-06-24T14:05:56;3.00;;;1.75;;
13051;SDS011;6592;47.484;9.726;2023-06-24T14:08:28;2.75;;;1.63;;
13051;SDS011;6592;47.484;9.726;2023-06-24T14:10:58;3.67;;;1.75;;
13051;SDS011;6592;47.484;9.726;2023-06-24T14:13:30;3.70;;;1.90;;
13051;SDS011;6592;47.484;9.726;2023-06-24T14:15:59;4.37;;;2.00;;
13051;SDS011;6592;47.484;9.726;2023-06-24T14:18:28;3.70;;;1.90;;
13051;SDS011;6592;47.484;9.726;2023-06-24T14:20:58;3.90;;;1.80;;
13051;SDS011;6592;47.484;9.726;2023-06-24T14:23:29;4.47;;;1.90;;
13051;SDS011;6592;47.484;9.726;2023-06-24T14:26:02;3.60;;;1.80;;
13051;SDS011;6592;47.484;9.726;2023-06-24T14:28:32;3.17;;;1.80;;
13051;SDS011;6592;47.484;9.726;2023-06-24T14:31:02;2.90;;;1.80;;
13051;SDS011;6592;47.484;9.726;2023-06-24T14:33:31;3.08;;;1.63;;
13051;SDS011;6592;47.484;9.726;2023-06-24T14:35:59;3.47;;;2.10;;
13051;SDS011;6592;47.484;9.726;2023-06-24T14:38:30;3.10;;;1.75;;
13051;SDS011;6592;47.484;9.726;2023-06-24T14:41:00;3.30;;;1.80;;
13051;SDS011;6592;47.484;9.726;2023-06-24T14:43:29;3.10;;;1.98;;
13051;SDS011;6592;47.484;9.726;2023-06-24T14:45:58;2.55;;;1.45;;
13051;SDS011;6592;47.484;9.726;2023-06-24T14:48:27;3.45;;;1.70;;
13051;SDS011;6592;47.484;9.726;2023-06-24T14:50:56;3.42;;;1.90;;
13051;SDS011;6592;47.484;9.726;2023-06-24T14:53:25;3.38;;;1.85;;
13051;SDS011;6592;47.484;9.726;2023-06-24T14:55:56;4.55;;;1.98;;
13051;SDS011;6592;47.484;9.726;2023-06-24T14:58:25;3.25;;;2.00;;
13051;SDS011;6592;47.484;9.726;2023-06-24T15:00:55;3.03;;;1.85;;
13051;SDS011;6592;47.484;9.726;2023-06-24T15:03:25;3.00;;;1.90;;
13051;SDS011;6592;47.484;9.726;2023-06-24T15:05:54;4.65;;;2.00;;
13051;SDS011;6592;47.484;9.726;2023-06-24T15:08:22;3.28;;;1.90;;
13051;SDS011;6592;47.484;9.726;2023-06-24T15:10:53;2.85;;;1.73;;
13051;SDS011;6592;47.484;9.726;2023-06-24T15:13:23;2.92;;;1.83;;
13051;SDS011;6592;47.484;9.726;2023-06-24T15:15:52;3.40;;;2.10;;
13051;SDS011;6592;47.484;9.726;2023-06-24T15:18:24;3.00;;;1.90;;
13051;SDS011;6592;47.484;9.726;2023-06-24T15:20:56;3.35;;;1.90;;
13051;SDS011;6592;47.484;9.726;2023-06-24T15:23:25;3.70;;;2.13;;
13051;SDS011;6592;47.484;9.726;2023-06-24T15:25:56;3.42;;;1.80;;
13051;SDS011;6592;47.484;9.726;2023-06-24T15:28:25;2.75;;;1.60;;
13051;SDS011;6592;47.484;9.726;2023-06-24T15:30:54;3.20;;;1.90;;
13051;SDS011;6592;47.484;9.726;2023-06-24T15:33:24;3.00;;;1.80;;
13051;SDS011;6592;47.484;9.726;2023-06-24T15:35:53;3.33;;;2.00;;
13051;SDS011;6592;47.484;9.726;2023-06-24T15:38:24;2.85;;;1.70;;